createdAt,value
2018-03-25T00:00:33.239Z,0.00
2018-03-25T00:01:33.088Z,0.00
2018-03-25T00:02:33.119Z,0.00
2018-03-25T00:03:32.913Z,0.00
2018-03-25T00:04:32.925Z,0.00
2018-03-25T00:05:32.782Z,0.00
2018-03-25T00:06:32.765Z,0.00
2018-03-25T00:07:32.586Z,0.00
2018-03-25T00:08:32.535Z,0.00
2018-03-25T00:09:32.430Z,0.00
2018-03-25T00:10:32.453Z,0.00
2018-03-25T00:11:32.340Z,0.00
2018-03-25T00:12:32.298Z,0.00
2018-03-25T00:13:32.129Z,0.00
2018-03-25T00:14:32.172Z,0.00
2018-03-25T00:15:31.979Z,0.00
2018-03-25T00:16:31.987Z,0.00
2018-03-25T00:17:31.809Z,0.00
2018-03-25T00:18:31.795Z,0.00
2018-03-25T00:19:31.612Z,0.00
2018-03-25T00:20:31.599Z,0.00
2018-03-25T00:21:31.469Z,0.00
2018-03-25T00:22:31.406Z,0.00
2018-03-25T00:23:31.299Z,0.00
2018-03-25T00:24:31.319Z,0.00
2018-03-25T00:25:31.139Z,0.00
2018-03-25T00:26:31.124Z,0.00
2018-03-25T00:27:30.964Z,0.00
2018-03-25T00:28:30.973Z,0.00
2018-03-25T00:29:30.795Z,0.00
2018-03-25T00:30:30.748Z,0.00
2018-03-25T00:31:30.648Z,0.00
2018-03-25T00:32:30.664Z,0.00
2018-03-25T00:33:30.480Z,0.00
2018-03-25T00:34:30.473Z,0.00
2018-03-25T00:35:30.306Z,0.00
2018-03-25T00:36:30.310Z,0.00
2018-03-25T00:37:30.139Z,0.00
2018-03-25T00:38:30.115Z,0.00
2018-03-25T00:39:29.973Z,0.00
2018-03-25T00:40:30.003Z,0.00
2018-03-25T00:41:29.828Z,0.00
2018-03-25T00:42:29.836Z,0.00
2018-03-25T00:43:29.656Z,0.00
2018-03-25T00:44:29.614Z,0.00
2018-03-25T00:45:29.482Z,0.00
2018-03-25T00:46:29.535Z,0.00
2018-03-25T00:47:29.466Z,0.00
2018-03-25T00:48:29.361Z,0.00
2018-03-25T00:49:29.152Z,0.00
2018-03-25T00:50:29.746Z,0.00
2018-03-25T00:51:28.978Z,0.00
2018-03-25T00:52:28.948Z,0.00
2018-03-25T00:53:28.846Z,0.00
2018-03-25T00:54:28.887Z,0.00
2018-03-25T00:55:28.655Z,0.00
2018-03-25T00:56:28.665Z,0.00
2018-03-25T00:57:28.490Z,0.00
2018-03-25T00:58:28.473Z,0.00
2018-03-25T00:59:28.339Z,0.00
2018-03-25T01:00:28.274Z,0.00
2018-03-25T01:01:28.157Z,0.00
2018-03-25T01:02:28.232Z,0.00
2018-03-25T01:03:27.998Z,0.00
2018-03-25T01:04:28.008Z,0.00
2018-03-25T01:05:27.828Z,0.00
2018-03-25T01:06:27.818Z,0.00
2018-03-25T01:07:27.799Z,0.00
2018-03-25T01:08:27.716Z,0.00
2018-03-25T01:09:27.506Z,0.00
2018-03-25T01:10:27.589Z,0.00
2018-03-25T01:11:27.364Z,0.00
2018-03-25T01:12:27.352Z,0.00
2018-03-25T01:13:27.196Z,0.00
2018-03-25T01:14:27.140Z,0.00
2018-03-25T01:15:27.039Z,0.00
2018-03-25T01:16:27.057Z,0.00
2018-03-25T01:17:26.869Z,0.00
2018-03-25T01:18:26.893Z,0.00
2018-03-25T01:19:26.691Z,0.00
2018-03-25T01:20:26.667Z,0.00
2018-03-25T01:21:26.547Z,0.00
2018-03-25T01:22:26.475Z,0.00
2018-03-25T01:23:26.341Z,0.00
2018-03-25T01:26:08.194Z,0.00
2018-03-25T01:27:08.181Z,0.00
2018-03-25T01:28:08.003Z,0.00
2018-03-25T01:29:07.988Z,0.00
2018-03-25T01:30:07.840Z,0.00
2018-03-25T01:31:07.854Z,0.00
2018-03-25T01:32:07.664Z,0.00
2018-03-25T01:33:07.707Z,0.00
2018-03-25T01:34:07.522Z,0.00
2018-03-25T01:35:07.541Z,0.00
2018-03-25T01:36:07.359Z,0.00
2018-03-25T01:37:07.327Z,0.00
2018-03-25T01:38:07.174Z,0.00
2018-03-25T01:39:07.134Z,0.00
2018-03-25T01:40:07.025Z,0.00
2018-03-25T01:41:07.043Z,0.00
2018-03-25T01:42:06.860Z,0.00
2018-03-25T01:43:06.848Z,0.00
2018-03-25T01:44:06.679Z,0.00
2018-03-25T01:45:06.656Z,0.00
2018-03-25T01:46:06.520Z,0.00
2018-03-25T01:47:06.500Z,0.00
2018-03-25T01:48:06.364Z,0.00
2018-03-25T01:49:06.382Z,0.00
2018-03-25T01:50:06.190Z,0.00
2018-03-25T01:51:06.203Z,0.00
2018-03-25T01:52:06.042Z,0.00
2018-03-25T01:53:05.996Z,0.00
2018-03-25T01:54:05.859Z,0.00
2018-03-25T01:55:05.911Z,0.00
2018-03-25T01:56:05.731Z,0.00
2018-03-25T01:57:05.743Z,0.00
2018-03-25T01:58:05.536Z,0.00
2018-03-25T01:59:05.533Z,0.00
2018-03-25T02:00:05.369Z,0.00
2018-03-25T02:01:05.440Z,0.00
2018-03-25T02:02:05.220Z,0.00
2018-03-25T02:03:05.173Z,0.00
2018-03-25T02:04:05.045Z,0.00
2018-03-25T02:05:05.055Z,0.00
2018-03-25T02:06:05.693Z,0.00
2018-03-25T02:07:04.880Z,0.00
2018-03-25T02:08:04.726Z,0.00
2018-03-25T02:09:04.669Z,0.00
2018-03-25T02:10:04.542Z,0.00
2018-03-25T02:11:04.582Z,0.00
2018-03-25T02:12:04.377Z,0.00
2018-03-25T02:13:04.429Z,0.00
2018-03-25T02:14:04.208Z,0.00
2018-03-25T02:15:04.197Z,0.00
2018-03-25T02:16:04.052Z,0.00
2018-03-25T02:17:04.010Z,0.00
2018-03-25T02:18:03.905Z,0.00
2018-03-25T02:19:03.916Z,0.00
2018-03-25T02:20:03.733Z,0.00
2018-03-25T02:21:03.726Z,0.00
2018-03-25T02:22:03.576Z,0.00
2018-03-25T02:23:03.557Z,0.00
2018-03-25T02:24:03.396Z,0.00
2018-03-25T02:25:03.352Z,0.00
2018-03-25T02:26:03.236Z,0.00
2018-03-25T02:27:03.253Z,0.00
2018-03-25T02:28:03.078Z,0.00
2018-03-25T02:29:03.089Z,0.00
2018-03-25T02:30:02.891Z,0.00
2018-03-25T02:31:02.870Z,0.00
2018-03-25T02:32:02.737Z,0.00
2018-03-25T02:33:02.706Z,0.00
2018-03-25T02:34:02.575Z,0.00
2018-03-25T02:35:02.583Z,0.00
2018-03-25T02:36:02.405Z,0.00
2018-03-25T02:37:02.395Z,0.00
2018-03-25T02:38:02.239Z,0.00
2018-03-25T02:39:02.237Z,0.00
2018-03-25T02:40:02.748Z,0.00
2018-03-25T02:41:02.116Z,0.00
2018-03-25T02:42:01.905Z,0.00
2018-03-25T02:43:01.945Z,0.00
2018-03-25T02:44:01.779Z,0.00
2018-03-25T02:45:01.732Z,0.00
2018-03-25T02:46:01.583Z,0.00
2018-03-25T02:47:01.539Z,0.00
2018-03-25T02:48:01.404Z,0.00
2018-03-25T02:49:01.380Z,0.00
2018-03-25T02:50:01.295Z,0.00
2018-03-25T02:51:01.258Z,0.00
2018-03-25T02:52:01.080Z,0.00
2018-03-25T02:53:01.082Z,0.00
2018-03-25T02:54:00.918Z,0.00
2018-03-25T02:55:00.918Z,0.00
2018-03-25T02:56:00.750Z,0.00
2018-03-25T02:57:00.784Z,0.00
2018-03-25T02:58:00.580Z,0.00
2018-03-25T02:59:00.599Z,0.00
2018-03-25T03:00:01.265Z,0.00
2018-03-25T03:01:00.436Z,0.00
2018-03-25T03:02:00.250Z,0.00
2018-03-25T03:03:00.237Z,0.00
2018-03-25T03:04:00.092Z,0.00
2018-03-25T03:05:00.071Z,0.00
2018-03-25T03:05:59.938Z,0.00
2018-03-25T03:06:59.934Z,0.00
2018-03-25T03:07:59.759Z,0.00
2018-03-25T03:08:59.743Z,0.00
2018-03-25T03:09:59.585Z,0.00
2018-03-25T03:10:59.591Z,0.00
2018-03-25T03:11:59.426Z,0.00
2018-03-25T03:12:59.466Z,0.00
2018-03-25T03:13:59.302Z,0.00
2018-03-25T03:16:41.195Z,0.00
2018-03-25T03:17:41.162Z,0.00
2018-03-25T03:18:41.015Z,0.00
2018-03-25T03:19:40.968Z,0.00
2018-03-25T03:20:40.853Z,0.00
2018-03-25T03:21:40.926Z,0.00
2018-03-25T03:22:40.679Z,0.00
2018-03-25T03:23:40.710Z,0.00
2018-03-25T03:24:40.513Z,0.00
2018-03-25T03:25:40.507Z,0.00
2018-03-25T03:26:40.395Z,0.00
2018-03-25T03:27:40.353Z,0.00
2018-03-25T03:28:40.185Z,0.00
2018-03-25T03:29:40.212Z,0.00
2018-03-25T03:30:40.047Z,0.00
2018-03-25T03:31:40.071Z,0.00
2018-03-25T03:32:39.866Z,0.00
2018-03-25T03:33:39.936Z,0.00
2018-03-25T03:34:39.699Z,0.00
2018-03-25T03:35:39.654Z,0.00
2018-03-25T03:36:39.519Z,0.00
2018-03-25T03:37:39.598Z,0.00
2018-03-25T03:38:39.360Z,0.00
2018-03-25T03:39:39.360Z,0.00
2018-03-25T03:40:39.190Z,0.00
2018-03-25T03:41:39.169Z,0.00
2018-03-25T03:42:39.039Z,0.00
2018-03-25T03:43:38.987Z,0.00
2018-03-25T03:44:38.872Z,0.00
2018-03-25T03:47:20.699Z,0.00
2018-03-25T03:48:20.684Z,0.00
2018-03-25T03:49:20.510Z,0.00
2018-03-25T03:50:20.490Z,0.00
2018-03-25T03:51:20.347Z,0.00
2018-03-25T03:52:20.342Z,0.00
2018-03-25T03:53:20.196Z,0.00
2018-03-25T03:54:20.206Z,0.00
2018-03-25T03:55:20.014Z,0.00
2018-03-25T03:56:20.020Z,0.00
2018-03-25T03:57:19.970Z,0.00
2018-03-25T03:58:19.826Z,0.00
2018-03-25T03:59:19.692Z,0.00
2018-03-25T04:00:19.641Z,0.00
2018-03-25T04:01:19.522Z,0.00
2018-03-25T04:02:19.560Z,0.00
2018-03-25T04:03:19.369Z,0.00
2018-03-25T04:04:19.356Z,0.00
2018-03-25T04:05:19.198Z,0.00
2018-03-25T04:06:19.157Z,0.00
2018-03-25T04:07:19.034Z,0.00
2018-03-25T04:08:19.002Z,0.00
2018-03-25T04:09:18.914Z,0.00
2018-03-25T04:10:18.897Z,0.00
2018-03-25T04:11:18.710Z,0.00
2018-03-25T04:12:18.684Z,0.00
2018-03-25T04:13:18.533Z,0.00
2018-03-25T04:14:18.502Z,0.00
2018-03-25T04:15:18.365Z,0.00
2018-03-25T04:16:18.411Z,0.00
2018-03-25T04:17:18.203Z,0.00
2018-03-25T04:18:18.245Z,0.00
2018-03-25T04:19:18.033Z,0.00
2018-03-25T04:20:18.132Z,0.00
2018-03-25T04:21:17.865Z,0.00
2018-03-25T04:22:17.829Z,0.00
2018-03-25T04:23:17.719Z,0.00
2018-03-25T04:24:17.692Z,0.00
2018-03-25T04:25:17.534Z,0.00
2018-03-25T04:26:17.546Z,0.00
2018-03-25T04:27:17.367Z,0.00
2018-03-25T04:28:17.356Z,0.00
2018-03-25T04:29:17.215Z,0.00
2018-03-25T04:30:17.164Z,0.00
2018-03-25T04:31:17.032Z,0.00
2018-03-25T04:32:17.083Z,0.00
2018-03-25T04:33:16.898Z,0.00
2018-03-25T04:34:16.885Z,0.00
2018-03-25T04:35:16.709Z,0.00
2018-03-25T04:36:16.698Z,0.00
2018-03-25T04:37:16.536Z,0.00
2018-03-25T04:38:16.504Z,0.00
2018-03-25T04:39:16.387Z,0.00
2018-03-25T04:40:16.411Z,0.00
2018-03-25T04:41:16.222Z,0.00
2018-03-25T04:42:16.218Z,0.00
2018-03-25T04:43:16.040Z,0.00
2018-03-25T04:44:16.061Z,0.00
2018-03-25T04:45:15.872Z,0.00
2018-03-25T04:46:15.835Z,0.00
2018-03-25T04:47:15.746Z,0.00
2018-03-25T04:48:15.745Z,0.00
2018-03-25T04:49:15.567Z,0.00
2018-03-25T04:50:15.566Z,0.00
2018-03-25T04:51:15.380Z,0.00
2018-03-25T04:52:15.366Z,0.00
2018-03-25T04:53:15.207Z,0.00
2018-03-25T04:54:15.175Z,0.00
2018-03-25T04:55:15.058Z,0.00
2018-03-25T04:56:15.082Z,0.00
2018-03-25T04:57:14.870Z,4.00
2018-03-25T04:58:14.951Z,4.00
2018-03-25T04:59:14.709Z,0.00
2018-03-25T05:00:14.731Z,4.00
2018-03-25T05:01:14.540Z,4.00
2018-03-25T05:02:14.515Z,4.00
2018-03-25T05:03:14.385Z,4.00
2018-03-25T05:04:14.424Z,8.00
2018-03-25T05:05:14.208Z,4.00
2018-03-25T05:06:14.270Z,8.00
2018-03-25T05:07:14.054Z,8.00
2018-03-25T05:08:14.041Z,12.00
2018-03-25T05:09:13.873Z,16.00
2018-03-25T05:10:13.962Z,16.00
2018-03-25T05:11:13.704Z,16.00
2018-03-25T05:12:13.655Z,24.00
2018-03-25T05:13:13.560Z,24.00
2018-03-25T05:14:13.565Z,28.00
2018-03-25T05:15:13.375Z,32.00
2018-03-25T05:16:13.372Z,36.00
2018-03-25T05:17:13.218Z,40.00
2018-03-25T05:18:13.218Z,44.00
2018-03-25T05:19:13.047Z,48.00
2018-03-25T05:20:13.198Z,56.00
2018-03-25T05:21:12.891Z,60.00
2018-03-25T05:22:12.903Z,68.00
2018-03-25T05:23:12.730Z,72.00
2018-03-25T05:24:12.711Z,84.00
2018-03-25T05:25:12.558Z,88.00
2018-03-25T05:26:12.552Z,96.00
2018-03-25T05:27:12.370Z,108.00
2018-03-25T05:28:12.327Z,112.00
2018-03-25T05:29:12.231Z,124.00
2018-03-25T05:30:12.242Z,136.00
2018-03-25T05:31:12.062Z,148.00
2018-03-25T05:32:12.049Z,160.00
2018-03-25T05:33:11.883Z,172.00
2018-03-25T05:34:11.868Z,188.00
2018-03-25T05:35:11.712Z,200.00
2018-03-25T05:36:11.699Z,216.00
2018-03-25T05:37:11.552Z,236.00
2018-03-25T05:38:11.581Z,252.00
2018-03-25T05:39:11.382Z,272.00
2018-03-25T05:40:11.403Z,292.00
2018-03-25T05:41:11.215Z,312.00
2018-03-25T05:42:11.289Z,336.00
2018-03-25T05:43:11.044Z,360.00
2018-03-25T05:44:11.100Z,384.00
2018-03-25T05:45:10.873Z,408.00
2018-03-25T05:46:11.773Z,428.00
2018-03-25T05:47:10.727Z,452.00
2018-03-25T05:48:10.791Z,476.00
2018-03-25T05:49:10.572Z,504.00
2018-03-25T05:50:10.601Z,532.00
2018-03-25T05:51:10.381Z,556.00
2018-03-25T05:52:10.419Z,580.00
2018-03-25T05:53:10.214Z,596.00
2018-03-25T05:54:10.351Z,616.00
2018-03-25T05:55:10.048Z,636.00
2018-03-25T05:56:10.131Z,660.00
2018-03-25T05:57:09.970Z,684.00
2018-03-25T05:59:51.718Z,748.00
2018-03-25T06:00:51.754Z,768.00
2018-03-25T06:01:51.529Z,788.00
2018-03-25T06:02:51.640Z,808.00
2018-03-25T06:03:51.378Z,832.00
2018-03-25T06:08:57.351Z,972.00
2018-03-25T06:09:57.131Z,1008.00
2018-03-25T06:10:57.242Z,1044.00
2018-03-25T06:11:56.948Z,1076.00
2018-03-25T06:12:57.041Z,1116.00
2018-03-25T06:13:56.804Z,1148.00
2018-03-25T06:14:56.873Z,1176.00
2018-03-25T06:15:56.661Z,1204.00
2018-03-25T06:16:56.654Z,1236.00
2018-03-25T06:17:56.464Z,1268.00
2018-03-25T06:18:56.582Z,1300.00
2018-03-25T06:19:56.297Z,1336.00
2018-03-25T06:20:56.371Z,1368.00
2018-03-25T06:21:56.108Z,1408.00
2018-03-25T06:22:56.287Z,1452.00
2018-03-25T06:23:55.958Z,1492.00
2018-03-25T06:24:56.533Z,1532.00
2018-03-25T06:25:55.788Z,1568.00
2018-03-25T06:28:37.700Z,1656.00
2018-03-25T06:29:37.832Z,1680.00
2018-03-25T06:30:37.565Z,1712.00
2018-03-25T06:31:37.604Z,1744.00
2018-03-25T06:32:37.377Z,1776.00
2018-03-25T06:35:19.220Z,1848.00
2018-03-25T06:36:19.312Z,1884.00
2018-03-25T06:37:19.110Z,1920.00
2018-03-25T06:38:19.123Z,1964.00
2018-03-25T06:39:18.862Z,2000.00
2018-03-25T06:40:21.013Z,2044.00
2018-03-25T06:41:18.701Z,2084.00
2018-03-25T06:42:18.654Z,2120.00
2018-03-25T06:43:18.531Z,2164.00
2018-03-25T06:44:18.579Z,2204.00
2018-03-25T06:45:18.389Z,2248.00
2018-03-25T06:46:18.424Z,2296.00
2018-03-25T06:47:18.213Z,2364.00
2018-03-25T06:48:18.181Z,2468.00
2018-03-25T06:49:18.036Z,2604.00
2018-03-25T06:50:17.997Z,2764.00
2018-03-25T06:51:17.889Z,2952.00
2018-03-25T06:52:17.897Z,3164.00
2018-03-25T06:53:17.713Z,3396.00
2018-03-25T06:54:17.706Z,3640.00
2018-03-25T06:55:17.537Z,3856.00
2018-03-25T06:56:17.541Z,4284.00
2018-03-25T06:57:17.419Z,4764.00
2018-03-25T06:58:17.326Z,5068.00
2018-03-25T06:59:17.212Z,5184.00
2018-03-25T07:00:17.243Z,5224.00
2018-03-25T07:01:17.056Z,5256.00
2018-03-25T07:02:17.075Z,5220.00
2018-03-25T07:03:16.877Z,5324.00
2018-03-25T07:04:16.854Z,5468.00
2018-03-25T07:05:16.709Z,5572.00
2018-03-25T07:06:16.770Z,5640.00
2018-03-25T07:07:16.570Z,5664.00
2018-03-25T07:08:16.583Z,5572.00
2018-03-25T07:09:16.389Z,5496.00
2018-03-25T07:10:16.381Z,5412.00
2018-03-25T07:11:16.223Z,5448.00
2018-03-25T07:12:16.222Z,5652.00
2018-03-25T07:13:16.064Z,5664.00
2018-03-25T07:14:16.100Z,5660.00
2018-03-25T07:15:15.902Z,5876.00
2018-03-25T07:16:15.934Z,5988.00
2018-03-25T07:17:15.752Z,6184.00
2018-03-25T07:18:15.714Z,6292.00
2018-03-25T07:19:15.583Z,6408.00
2018-03-25T07:20:15.520Z,6712.00
2018-03-25T07:21:15.413Z,7044.00
2018-03-25T07:22:15.474Z,7252.00
2018-03-25T07:23:15.260Z,7292.00
2018-03-25T07:24:15.256Z,7272.00
2018-03-25T07:25:15.094Z,7252.00
2018-03-25T07:26:15.053Z,7304.00
2018-03-25T07:27:14.952Z,7340.00
2018-03-25T07:28:14.985Z,7368.00
2018-03-25T07:29:14.771Z,7412.00
2018-03-25T07:30:14.815Z,7452.00
2018-03-25T07:31:14.610Z,7488.00
2018-03-25T07:32:14.585Z,7524.00
2018-03-25T07:33:14.498Z,7584.00
2018-03-25T07:34:14.491Z,7640.00
2018-03-25T07:35:14.290Z,7688.00
2018-03-25T07:36:14.310Z,7768.00
2018-03-25T07:37:14.131Z,7832.00
2018-03-25T07:38:14.142Z,7876.00
2018-03-25T07:39:13.984Z,7924.00
2018-03-25T07:40:14.041Z,8012.00
2018-03-25T07:41:13.820Z,8088.00
2018-03-25T07:42:13.858Z,8192.00
2018-03-25T07:43:13.691Z,8268.00
2018-03-25T07:44:13.673Z,8336.00
2018-03-25T07:45:13.509Z,8344.00
2018-03-25T07:46:13.557Z,8388.00
2018-03-25T07:47:13.349Z,8464.00
2018-03-25T07:48:13.419Z,8528.00
2018-03-25T07:49:13.193Z,8556.00
2018-03-25T07:50:13.166Z,8592.00
2018-03-25T07:51:13.037Z,8608.00
2018-03-25T07:52:13.088Z,8620.00
2018-03-25T07:53:12.902Z,8632.00
2018-03-25T07:54:12.885Z,8708.00
2018-03-25T07:55:12.728Z,8788.00
2018-03-25T07:56:12.696Z,8852.00
2018-03-25T07:57:12.573Z,8896.00
2018-03-25T07:58:12.629Z,8936.00
2018-03-25T07:59:12.408Z,8976.00
2018-03-25T08:00:12.412Z,8888.00
2018-03-25T08:01:12.304Z,9024.00
2018-03-25T08:02:12.224Z,9112.00
2018-03-25T08:03:12.138Z,9156.00
2018-03-25T08:04:12.133Z,9200.00
2018-03-25T08:05:11.946Z,9224.00
2018-03-25T08:06:11.940Z,9288.00
2018-03-25T08:07:11.782Z,9308.00
2018-03-25T08:08:11.756Z,9356.00
2018-03-25T08:09:11.756Z,9416.00
2018-03-25T08:10:11.661Z,9512.00
2018-03-25T08:11:11.474Z,9568.00
2018-03-25T08:12:11.563Z,9612.00
2018-03-25T08:13:11.323Z,9644.00
2018-03-25T08:14:11.312Z,9684.00
2018-03-25T08:15:11.185Z,9708.00
2018-03-25T08:16:11.221Z,9708.00
2018-03-25T08:17:11.016Z,9744.00
2018-03-25T08:18:10.990Z,9748.00
2018-03-25T08:19:10.892Z,9816.00
2018-03-25T08:20:10.906Z,9876.00
2018-03-25T08:21:10.703Z,9936.00
2018-03-25T08:22:10.711Z,9948.00
2018-03-25T08:23:10.555Z,9964.00
2018-03-25T08:24:10.556Z,9956.00
2018-03-25T08:25:10.395Z,9960.00
2018-03-25T08:26:10.429Z,10000.00
2018-03-25T08:27:10.296Z,10036.00
2018-03-25T08:28:10.234Z,10056.00
2018-03-25T08:29:10.109Z,10064.00
2018-03-25T08:30:10.084Z,10056.00
2018-03-25T08:31:09.941Z,10096.00
2018-03-25T08:32:10.062Z,10140.00
2018-03-25T08:33:09.830Z,10192.00
2018-03-25T08:35:51.759Z,10340.00
2018-03-25T08:36:51.769Z,10376.00
2018-03-25T08:37:51.574Z,10360.00
2018-03-25T08:38:51.574Z,10304.00
2018-03-25T08:39:51.486Z,10356.00
2018-03-25T08:40:51.417Z,10468.00
2018-03-25T08:41:51.264Z,10488.00
2018-03-25T08:42:51.287Z,10464.00
2018-03-25T08:43:51.113Z,10432.00
2018-03-25T08:44:51.098Z,10456.00
2018-03-25T08:45:50.990Z,10472.00
2018-03-25T08:46:51.014Z,10528.00
2018-03-25T08:47:50.822Z,10580.00
2018-03-25T08:48:50.816Z,10652.00
2018-03-25T08:49:50.680Z,10716.00
2018-03-25T08:50:50.762Z,10708.00
2018-03-25T08:51:50.535Z,10712.00
2018-03-25T08:52:50.536Z,10752.00
2018-03-25T08:53:50.372Z,10824.00
2018-03-25T08:54:50.384Z,10864.00
2018-03-25T08:55:50.275Z,10900.00
2018-03-25T08:56:50.334Z,10900.00
2018-03-25T08:57:50.084Z,10948.00
2018-03-25T08:58:50.119Z,11000.00
2018-03-25T08:59:49.921Z,11064.00
2018-03-25T09:00:49.874Z,11132.00
2018-03-25T09:01:49.779Z,11144.00
2018-03-25T09:02:49.786Z,11176.00
2018-03-25T09:03:49.641Z,11204.00
2018-03-25T09:06:31.752Z,11360.00
2018-03-25T09:07:31.797Z,11420.00
2018-03-25T09:08:31.607Z,11436.00
2018-03-25T09:09:31.600Z,11492.00
2018-03-25T09:10:31.477Z,11580.00
2018-03-25T09:11:31.433Z,11640.00
2018-03-25T09:12:31.314Z,11688.00
2018-03-25T09:13:31.331Z,11784.00
2018-03-25T09:14:31.170Z,11860.00
2018-03-25T09:15:31.134Z,11964.00
2018-03-25T09:16:31.001Z,12080.00
2018-03-25T09:17:31.100Z,12180.00
2018-03-25T09:18:30.868Z,12208.00
2018-03-25T09:19:30.859Z,12232.00
2018-03-25T09:20:30.716Z,12324.00
2018-03-25T09:21:30.767Z,12444.00
2018-03-25T09:22:30.593Z,12576.00
2018-03-25T09:23:30.569Z,12640.00
2018-03-25T09:24:30.513Z,12696.00
2018-03-25T09:25:30.477Z,12748.00
2018-03-25T09:26:30.277Z,12892.00
2018-03-25T09:27:30.298Z,12904.00
2018-03-25T09:28:30.130Z,13032.00
2018-03-25T09:29:30.235Z,13204.00
2018-03-25T09:30:30.007Z,13340.00
2018-03-25T09:33:12.246Z,13748.00
2018-03-25T09:34:12.314Z,13904.00
2018-03-25T09:35:12.130Z,13964.00
2018-03-25T09:36:12.134Z,14132.00
2018-03-25T09:37:11.980Z,14256.00
2018-03-25T09:38:11.961Z,14432.00
2018-03-25T09:39:11.816Z,14608.00
2018-03-25T09:40:11.846Z,14660.00
2018-03-25T09:41:11.691Z,14844.00
2018-03-25T09:42:11.657Z,15008.00
2018-03-25T09:43:11.540Z,15360.00
2018-03-25T09:44:11.566Z,15648.00
2018-03-25T09:45:11.397Z,15776.00
2018-03-25T09:46:12.431Z,15968.00
2018-03-25T09:47:11.243Z,16192.00
2018-03-25T09:48:11.281Z,16320.00
2018-03-25T09:49:11.099Z,16512.00
2018-03-25T09:50:11.102Z,16544.00
2018-03-25T09:51:10.966Z,16576.00
2018-03-25T09:52:11.025Z,16768.00
2018-03-25T09:53:10.819Z,16800.00
2018-03-25T09:54:11.871Z,16928.00
2018-03-25T09:55:10.672Z,17184.00
2018-03-25T09:56:10.772Z,17248.00
2018-03-25T09:57:10.559Z,17280.00
2018-03-25T09:58:10.539Z,17536.00
2018-03-25T09:59:10.408Z,17760.00
2018-03-25T10:00:10.433Z,18048.00
2018-03-25T10:01:10.280Z,18304.00
2018-03-25T10:02:10.282Z,18400.00
2018-03-25T10:03:10.121Z,18560.00
2018-03-25T10:04:10.181Z,18752.00
2018-03-25T10:05:09.990Z,19072.00
2018-03-25T10:06:09.968Z,19424.00
2018-03-25T10:07:09.844Z,19712.00
2018-03-25T10:08:09.879Z,19968.00
2018-03-25T10:09:09.772Z,20416.00
2018-03-25T10:10:09.706Z,20672.00
2018-03-25T10:11:09.562Z,20960.00
2018-03-25T10:12:09.594Z,21344.00
2018-03-25T10:13:09.544Z,21984.00
2018-03-25T10:14:09.455Z,22080.00
2018-03-25T10:15:09.279Z,22528.00
2018-03-25T10:16:09.337Z,22784.00
2018-03-25T10:17:09.142Z,23456.00
2018-03-25T10:19:51.300Z,24256.00
2018-03-25T10:20:51.466Z,24672.00
2018-03-25T10:21:51.266Z,25024.00
2018-03-25T10:22:51.131Z,25664.00
2018-03-25T10:23:50.992Z,26048.00
2018-03-25T10:24:51.065Z,26208.00
2018-03-25T10:25:50.882Z,26400.00
2018-03-25T10:26:50.844Z,26976.00
2018-03-25T10:27:50.721Z,27392.00
2018-03-25T10:28:50.779Z,27872.00
2018-03-25T10:29:50.616Z,28032.00
2018-03-25T10:30:50.571Z,28320.00
2018-03-25T10:31:50.556Z,28800.00
2018-03-25T10:32:50.488Z,28832.00
2018-03-25T10:33:50.311Z,29152.00
2018-03-25T10:34:50.441Z,29024.00
2018-03-25T10:35:50.169Z,29472.00
2018-03-25T10:36:50.224Z,29440.00
2018-03-25T10:37:50.041Z,29568.00
2018-03-25T10:38:50.000Z,29632.00
2018-03-25T10:39:49.906Z,29440.00
2018-03-25T10:40:49.917Z,29504.00
2018-03-25T10:41:49.768Z,30080.00
2018-03-25T10:42:49.729Z,29856.00
2018-03-25T10:43:49.633Z,29984.00
2018-03-25T10:44:49.668Z,29888.00
2018-03-25T10:45:49.526Z,29728.00
2018-03-25T10:46:49.553Z,29568.00
2018-03-25T10:47:49.347Z,29664.00
2018-03-25T10:48:49.373Z,29408.00
2018-03-25T10:49:49.250Z,29344.00
2018-03-25T10:50:49.264Z,29216.00
2018-03-25T10:51:49.081Z,29088.00
2018-03-25T10:52:49.088Z,28960.00
2018-03-25T10:53:48.941Z,28640.00
2018-03-25T10:56:30.822Z,28160.00
2018-03-25T10:57:30.823Z,28128.00
2018-03-25T10:58:30.683Z,27648.00
2018-03-25T10:59:30.684Z,27552.00
2018-03-25T11:00:30.525Z,27168.00
2018-03-25T11:01:30.495Z,26816.00
2018-03-25T11:02:30.380Z,27296.00
2018-03-25T11:03:30.318Z,28128.00
2018-03-25T11:04:30.247Z,32160.00
2018-03-25T11:05:30.244Z,60608.00
2018-03-25T11:06:30.121Z,102368.00
2018-03-25T11:07:30.231Z,120256.00
2018-03-25T11:08:29.973Z,107648.00
2018-03-25T11:09:29.936Z,84992.00
2018-03-25T11:10:29.808Z,78208.00
2018-03-25T11:11:29.849Z,73856.00
2018-03-25T11:24:53.130Z,68320.00
2018-03-25T11:25:52.995Z,64000.00
2018-03-25T11:26:53.037Z,66976.00
2018-03-25T11:27:52.826Z,67424.00
2018-03-25T11:28:52.818Z,68704.00
2018-03-25T11:29:52.691Z,67104.00
2018-03-25T11:30:52.751Z,66208.00
2018-03-25T11:31:52.624Z,66048.00
2018-03-25T11:32:52.474Z,65728.00
2018-03-25T11:33:52.402Z,64512.00
2018-03-25T11:34:52.420Z,63456.00
2018-03-25T11:35:52.254Z,63680.00
2018-03-25T11:36:52.261Z,63616.00
2018-03-25T11:37:52.201Z,66240.00
2018-03-25T11:38:52.141Z,59008.00
2018-03-25T11:39:51.988Z,59616.00
2018-03-25T11:40:51.943Z,47872.00
2018-03-25T11:41:51.902Z,44256.00
2018-03-25T11:42:51.779Z,23424.00
2018-03-25T11:43:51.712Z,15576.00
2018-03-25T11:44:51.779Z,14820.00
2018-03-25T11:45:51.572Z,24160.00
2018-03-25T11:46:51.686Z,38496.00
2018-03-25T11:47:51.465Z,39680.00
2018-03-25T11:48:51.398Z,64480.00
2018-03-25T11:49:51.335Z,68288.00
2018-03-25T11:50:51.337Z,66528.00
2018-03-25T11:51:51.151Z,63776.00
2018-03-25T11:52:51.106Z,65312.00
2018-03-25T11:53:51.008Z,66368.00
2018-03-25T11:54:51.019Z,67584.00
2018-03-25T11:55:50.894Z,67168.00
2018-03-25T11:56:50.828Z,69952.00
2018-03-25T11:57:50.748Z,70048.00
2018-03-25T11:58:50.737Z,68288.00
2018-03-25T11:59:50.597Z,67840.00
2018-03-25T12:00:50.541Z,68320.00
2018-03-25T12:01:50.461Z,65760.00
2018-03-25T12:02:50.459Z,65984.00
2018-03-25T12:03:50.356Z,66784.00
2018-03-25T12:04:50.394Z,65952.00
2018-03-25T12:05:50.235Z,66464.00
2018-03-25T12:06:50.184Z,53632.00
2018-03-25T12:07:50.040Z,15964.00
2018-03-25T12:08:50.094Z,18880.00
2018-03-25T12:09:49.910Z,35584.00
2018-03-25T12:10:49.892Z,43552.00
2018-03-25T12:11:49.754Z,28928.00
2018-03-25T12:12:49.692Z,21216.00
2018-03-25T12:13:49.618Z,12168.00
2018-03-25T12:14:49.666Z,11156.00
2018-03-25T12:15:49.505Z,11416.00
2018-03-25T12:16:49.413Z,11456.00
2018-03-25T12:17:49.339Z,11388.00
2018-03-25T12:18:49.346Z,11328.00
2018-03-25T12:19:49.217Z,11248.00
2018-03-25T12:20:49.243Z,11368.00
2018-03-25T12:21:49.039Z,11560.00
2018-03-25T12:22:49.052Z,11632.00
2018-03-25T12:23:48.910Z,11540.00
2018-03-25T12:24:48.856Z,11352.00
2018-03-25T12:25:48.769Z,11332.00
2018-03-25T12:26:48.783Z,11148.00
2018-03-25T12:27:48.598Z,11120.00
2018-03-25T12:28:48.653Z,11072.00
2018-03-25T12:29:48.474Z,11000.00
2018-03-25T12:30:48.491Z,10608.00
2018-03-25T12:31:48.379Z,10104.00
2018-03-25T12:32:48.304Z,9960.00
2018-03-25T12:33:48.162Z,9948.00
2018-03-25T12:34:48.180Z,9848.00
2018-03-25T12:35:48.006Z,9616.00
2018-03-25T12:38:29.819Z,8880.00
2018-03-25T12:39:29.779Z,8804.00
2018-03-25T12:40:29.689Z,8768.00
2018-03-25T12:41:29.728Z,8716.00
2018-03-25T12:42:29.537Z,8716.00
2018-03-25T12:43:29.544Z,8720.00
2018-03-25T12:44:29.380Z,8724.00
2018-03-25T12:45:29.341Z,8764.00
2018-03-25T12:46:29.221Z,8848.00
2018-03-25T12:47:29.261Z,8820.00
2018-03-25T12:48:29.081Z,8964.00
2018-03-25T12:49:29.103Z,9048.00
2018-03-25T12:50:28.908Z,9096.00
2018-03-25T12:51:28.872Z,9064.00
2018-03-25T12:52:28.810Z,8816.00
2018-03-25T12:53:28.777Z,8504.00
2018-03-25T12:54:28.600Z,8360.00
2018-03-25T12:55:28.619Z,8316.00
2018-03-25T12:56:28.452Z,8368.00
2018-03-25T13:06:51.946Z,8464.00
2018-03-25T13:07:51.918Z,8060.00
2018-03-25T13:08:51.895Z,7772.00
2018-03-25T13:09:51.761Z,7524.00
2018-03-25T13:10:51.642Z,7212.00
2018-03-25T13:11:51.637Z,7248.00
2018-03-25T13:12:51.446Z,7040.00
2018-03-25T13:13:51.440Z,7396.00